Artesian, Iowa
Current Conditions -  °F | °C
As of 5:54 PM on Saturday 20 Dec 2014 (Local Time) from KALO Reporting Station
Haze Haze  
Wind Chill: 26°   Ceiling: 500
Heat Index: 32°   Visibility: 3mi
Dew Point: 31°   Wind: 7mph
Humidity: 96%   Direction: 160°SSE
Pressure: 30.16"   Gusts: NA
Location:  42.787°N, 92.4284°W
Report Text: KALO 202354Z 16006KT 3SM BR OVC005 00/M01 A3016 RMK AO2 SLP222 60000 T00001006 10000 20000 51005
Loading
Personal Weather Stations






























Interactive Weather Map New forecast layout! Learn more

10-Day Weather Forecast

Advertisements
Track Severe Weather on mobile